createdAt,value
2018-10-16T00:00:18.587Z,14.18
2018-10-16T00:02:48.140Z,14.13
2018-10-16T00:05:18.463Z,14.17
2018-10-16T00:07:47.671Z,14.14
2018-10-16T00:10:22.205Z,14.07
2018-10-16T00:12:51.357Z,14.11
2018-10-16T00:15:20.515Z,14.10
2018-10-16T00:17:49.849Z,14.14
2018-10-16T00:20:19.036Z,14.14
2018-10-16T00:22:48.224Z,14.11
2018-10-16T00:25:18.327Z,14.06
2018-10-16T00:27:47.549Z,14.01
2018-10-16T00:30:16.783Z,14.05
2018-10-16T00:32:46.018Z,14.01
2018-10-16T00:35:15.188Z,13.99
2018-10-16T00:37:44.380Z,13.92
2018-10-16T00:40:13.966Z,13.92
2018-10-16T00:42:43.118Z,13.91
2018-10-16T00:45:12.841Z,13.96
2018-10-16T00:47:42.001Z,14.03
2018-10-16T00:50:11.203Z,14.03
2018-10-16T00:52:40.541Z,14.03
2018-10-16T00:55:10.421Z,14.06
2018-10-16T00:57:40.252Z,14.03
2018-10-16T01:00:11.309Z,14.10
2018-10-16T01:02:41.100Z,14.07
2018-10-16T01:05:11.121Z,14.03
2018-10-16T01:07:40.917Z,13.96
2018-10-16T01:10:11.198Z,13.95
2018-10-16T01:12:40.887Z,13.98
2018-10-16T01:15:11.419Z,13.94
2018-10-16T01:17:41.008Z,13.90
2018-10-16T01:20:13.474Z,13.93
2018-10-16T01:22:43.056Z,13.81
2018-10-16T01:25:13.409Z,13.92
2018-10-16T01:27:42.628Z,13.89
2018-10-16T01:30:11.793Z,13.90
2018-10-16T01:32:40.997Z,13.90
2018-10-16T01:35:11.478Z,13.91
2018-10-16T01:37:41.096Z,13.90
2018-10-16T01:40:11.172Z,13.89
2018-10-16T01:42:40.549Z,13.90
2018-10-16T01:45:10.334Z,13.85
2018-10-16T01:47:39.592Z,13.73
2018-10-16T01:50:08.949Z,13.71
2018-10-16T01:52:38.632Z,13.68
2018-10-16T01:55:07.860Z,13.58
2018-10-16T01:57:37.051Z,13.53
2018-10-16T02:00:07.198Z,13.53
2018-10-16T02:02:36.491Z,13.54
2018-10-16T02:05:06.933Z,13.48
2018-10-16T02:07:36.137Z,13.46
2018-10-16T02:10:05.497Z,13.44
2018-10-16T02:12:34.696Z,13.36
2018-10-16T02:15:03.868Z,13.37
2018-10-16T02:17:33.281Z,13.33
2018-10-16T02:20:02.450Z,13.37
2018-10-16T02:22:31.635Z,13.40
2018-10-16T02:25:01.038Z,13.39
2018-10-16T02:27:30.249Z,13.39
2018-10-16T02:29:59.419Z,13.35
2018-10-16T02:32:28.616Z,13.30
2018-10-16T02:34:57.945Z,13.33
2018-10-16T02:37:27.109Z,13.31
2018-10-16T02:39:56.524Z,13.37
2018-10-16T02:42:25.705Z,13.34
2018-10-16T02:44:54.889Z,13.32
2018-10-16T02:47:24.301Z,13.30
2018-10-16T02:49:53.501Z,13.27
2018-10-16T02:52:22.722Z,13.24
2018-10-16T02:54:51.917Z,13.18
2018-10-16T02:57:21.116Z,13.16
2018-10-16T02:59:50.306Z,13.11
2018-10-16T03:02:19.477Z,13.04
2018-10-16T03:04:48.637Z,13.06
2018-10-16T03:07:17.825Z,13.02
2018-10-16T03:09:47.072Z,13.03
2018-10-16T03:12:16.278Z,13.02
2018-10-16T03:14:45.509Z,13.10
2018-10-16T03:17:14.660Z,13.15
2018-10-16T03:19:43.813Z,13.17
2018-10-16T03:22:12.980Z,13.14
2018-10-16T03:24:42.227Z,13.08
2018-10-16T03:27:11.385Z,13.07
2018-10-16T03:29:40.564Z,13.02
2018-10-16T03:32:09.713Z,12.99
2018-10-16T03:34:38.910Z,12.96
2018-10-16T03:37:08.109Z,12.93
2018-10-16T03:39:37.324Z,12.93
2018-10-16T03:42:06.700Z,12.94
2018-10-16T03:44:36.143Z,12.96
2018-10-16T03:47:05.433Z,12.98
2018-10-16T03:49:34.636Z,12.97
2018-10-16T03:52:03.863Z,12.91
2018-10-16T03:54:33.041Z,12.93
2018-10-16T03:57:02.276Z,12.91
2018-10-16T03:59:31.460Z,12.88
2018-10-16T04:02:00.656Z,12.90
2018-10-16T04:04:29.874Z,12.96
2018-10-16T04:06:59.041Z,13.00
2018-10-16T04:09:28.265Z,13.03
2018-10-16T04:11:57.483Z,12.94
2018-10-16T04:14:26.645Z,12.93
2018-10-16T04:16:57.221Z,12.95
2018-10-16T04:19:26.468Z,12.90
2018-10-16T04:21:55.664Z,12.89
2018-10-16T04:24:24.904Z,12.79
2018-10-16T04:26:54.042Z,12.75
2018-10-16T04:29:23.294Z,12.73
2018-10-16T04:31:52.575Z,12.73
2018-10-16T04:34:21.737Z,12.70
2018-10-16T04:36:50.921Z,12.68
2018-10-16T04:39:26.845Z,12.65
2018-10-16T04:41:56.402Z,12.60
2018-10-16T04:44:25.621Z,12.56
2018-10-16T04:46:54.849Z,12.57
2018-10-16T04:49:24.023Z,12.57
2018-10-16T04:51:53.184Z,12.54
2018-10-16T04:54:22.355Z,12.50
2018-10-16T04:56:51.572Z,12.50
2018-10-16T04:59:20.793Z,12.48
2018-10-16T05:01:49.980Z,12.45
2018-10-16T05:04:19.302Z,12.38
2018-10-16T05:06:48.371Z,12.37
2018-10-16T05:09:17.528Z,12.34
2018-10-16T05:11:49.628Z,12.32
2018-10-16T05:14:18.922Z,12.31
2018-10-16T05:16:48.116Z,12.32
2018-10-16T05:19:17.475Z,12.33
2018-10-16T05:21:46.552Z,12.32
2018-10-16T05:24:15.734Z,12.30
2018-10-16T05:26:44.940Z,12.25
2018-10-16T05:29:14.147Z,12.25
2018-10-16T05:31:43.388Z,12.25
2018-10-16T05:34:12.549Z,12.23
2018-10-16T05:36:41.744Z,12.24
2018-10-16T05:39:12.306Z,12.25
2018-10-16T05:41:41.508Z,12.31
2018-10-16T05:44:10.827Z,12.32
2018-10-16T05:46:40.074Z,12.30
2018-10-16T05:49:09.276Z,12.27
2018-10-16T05:51:38.473Z,12.30
2018-10-16T05:54:07.713Z,12.30
2018-10-16T05:56:36.990Z,12.32
2018-10-16T05:59:06.356Z,12.29
2018-10-16T06:01:35.551Z,12.27
2018-10-16T06:04:04.924Z,12.32
2018-10-16T06:06:34.163Z,12.35
2018-10-16T06:09:04.498Z,12.35
2018-10-16T06:11:33.677Z,12.52
2018-10-16T06:14:04.193Z,12.59
2018-10-16T06:16:33.454Z,12.59
2018-10-16T06:19:02.681Z,12.57
2018-10-16T06:21:32.619Z,12.58
2018-10-16T06:24:01.818Z,12.64
2018-10-16T06:26:31.090Z,12.80
2018-10-16T06:29:00.213Z,12.92
2018-10-16T06:31:29.461Z,12.99
2018-10-16T06:33:58.725Z,13.11
2018-10-16T06:36:27.920Z,13.15
2018-10-16T06:38:57.105Z,13.24
2018-10-16T06:41:26.880Z,13.43
2018-10-16T06:43:56.018Z,13.60
2018-10-16T06:46:25.246Z,13.64
2018-10-16T06:48:54.557Z,13.71
2018-10-16T06:51:23.607Z,13.91
2018-10-16T06:53:52.803Z,14.39
2018-10-16T06:56:22.066Z,14.82
2018-10-16T06:58:51.326Z,15.23
2018-10-16T07:01:20.544Z,15.73
2018-10-16T07:03:49.764Z,16.21
2018-10-16T07:06:18.996Z,16.47
2018-10-16T07:08:48.158Z,16.99
2018-10-16T07:11:17.361Z,17.31
2018-10-16T07:13:46.549Z,17.42
2018-10-16T07:16:15.806Z,17.27
2018-10-16T07:18:45.016Z,17.26
2018-10-16T07:21:14.213Z,17.47
2018-10-16T07:23:43.453Z,17.48
2018-10-16T07:26:12.618Z,17.74
2018-10-16T07:28:41.826Z,17.95
2018-10-16T07:31:11.041Z,18.51
2018-10-16T07:33:40.226Z,18.65
2018-10-16T07:36:09.442Z,18.99
2018-10-16T07:38:38.622Z,19.41
2018-10-16T07:41:07.811Z,19.76
2018-10-16T07:43:36.989Z,19.83
2018-10-16T07:46:06.441Z,20.14
2018-10-16T07:48:35.735Z,20.30
2018-10-16T07:51:04.798Z,20.50
2018-10-16T07:53:34.040Z,20.74
2018-10-16T07:56:03.273Z,20.92
2018-10-16T07:58:32.458Z,21.13
2018-10-16T08:01:01.618Z,21.13
2018-10-16T08:03:30.817Z,21.43
2018-10-16T08:05:59.986Z,21.82
2018-10-16T08:08:29.197Z,21.93
2018-10-16T08:10:58.345Z,21.98
2018-10-16T08:13:27.508Z,22.04
2018-10-16T08:15:56.741Z,22.34
2018-10-16T08:18:25.932Z,22.52
2018-10-16T08:20:55.138Z,22.85
2018-10-16T08:23:24.360Z,22.85
2018-10-16T08:25:53.812Z,22.90
2018-10-16T08:28:23.097Z,23.14
2018-10-16T08:30:52.436Z,23.29
2018-10-16T08:33:21.655Z,23.46
2018-10-16T08:35:50.853Z,23.65
2018-10-16T08:40:28.542Z,23.30
2018-10-16T08:43:27.413Z,23.60
2018-10-16T08:46:13.814Z,23.46
2018-10-16T08:49:00.824Z,23.44
2018-10-16T08:51:39.701Z,23.65
2018-10-16T08:54:09.329Z,23.94
2018-10-16T08:56:38.550Z,23.83
2018-10-16T08:59:07.755Z,23.80
2018-10-16T09:01:36.966Z,23.92
2018-10-16T09:04:06.532Z,23.65
2018-10-16T09:06:35.796Z,23.94
2018-10-16T09:09:08.525Z,24.24
2018-10-16T09:11:37.770Z,24.21
2018-10-16T09:14:07.241Z,24.30
2018-10-16T09:16:36.357Z,24.10
2018-10-16T09:19:05.991Z,24.27
2018-10-16T09:21:35.216Z,24.49
2018-10-16T09:24:04.402Z,24.84
2018-10-16T09:26:33.601Z,25.07
2018-10-16T09:29:02.806Z,25.01
2018-10-16T09:31:32.119Z,25.24
2018-10-16T09:34:01.259Z,25.24
2018-10-16T09:36:30.457Z,25.32
2018-10-16T09:38:59.612Z,25.18
2018-10-16T09:41:28.798Z,25.31
2018-10-16T09:43:57.957Z,25.42
2018-10-16T09:46:27.143Z,25.12
2018-10-16T09:48:56.353Z,25.23
2018-10-16T09:51:25.560Z,25.31
2018-10-16T09:53:54.748Z,25.86
2018-10-16T09:56:23.914Z,26.10
2018-10-16T09:58:53.118Z,26.03
2018-10-16T10:01:27.642Z,25.66
2018-10-16T10:03:56.859Z,25.77
2018-10-16T10:06:26.022Z,25.81
2018-10-16T10:08:55.219Z,25.68
2018-10-16T10:11:24.405Z,25.80
2018-10-16T10:13:53.597Z,25.86
2018-10-16T10:16:22.804Z,26.23
2018-10-16T10:18:51.965Z,26.14
2018-10-16T10:21:21.130Z,26.14
2018-10-16T10:23:50.323Z,26.08
2018-10-16T10:26:19.501Z,26.34
2018-10-16T10:28:48.661Z,26.51
2018-10-16T10:31:17.840Z,26.49
2018-10-16T10:33:46.995Z,26.46
2018-10-16T10:36:16.191Z,26.63
2018-10-16T10:38:45.367Z,26.48
2018-10-16T10:41:14.541Z,26.59
2018-10-16T10:43:43.676Z,26.91
2018-10-16T10:46:12.835Z,26.87
2018-10-16T10:48:42.044Z,26.59
2018-10-16T10:51:11.472Z,26.60
2018-10-16T10:53:40.675Z,26.67
2018-10-16T10:56:09.873Z,26.86
2018-10-16T10:58:39.031Z,27.13
2018-10-16T11:01:08.230Z,27.29
2018-10-16T11:03:37.577Z,27.00
2018-10-16T11:06:06.623Z,26.81
2018-10-16T11:08:35.807Z,26.84
2018-10-16T11:11:05.166Z,27.00
2018-10-16T11:13:34.389Z,26.83
2018-10-16T11:16:03.677Z,26.81
2018-10-16T11:18:32.827Z,26.52
2018-10-16T11:21:02.122Z,26.55
2018-10-16T11:23:31.225Z,26.58
2018-10-16T11:26:00.823Z,26.89
2018-10-16T11:28:30.012Z,26.97
2018-10-16T11:30:59.153Z,27.04
2018-10-16T11:33:28.336Z,27.02
2018-10-16T11:35:57.481Z,27.15
2018-10-16T11:38:27.073Z,27.16
2018-10-16T11:40:56.208Z,27.31
2018-10-16T11:43:25.381Z,27.11
2018-10-16T11:45:54.540Z,27.10
2018-10-16T11:48:23.713Z,26.99
2018-10-16T11:50:52.889Z,26.97
2018-10-16T11:53:22.119Z,26.89
2018-10-16T11:55:51.292Z,26.77
2018-10-16T11:58:20.432Z,26.82
2018-10-16T12:00:49.594Z,26.83
2018-10-16T12:03:18.787Z,26.91
2018-10-16T12:05:47.958Z,26.82
2018-10-16T12:08:17.200Z,26.79
2018-10-16T12:10:46.351Z,26.75
2018-10-16T12:13:15.692Z,26.84
2018-10-16T12:15:44.828Z,26.72
2018-10-16T12:18:19.540Z,26.84
2018-10-16T12:20:52.991Z,26.70
2018-10-16T12:23:22.175Z,26.56
2018-10-16T12:25:51.305Z,26.67
2018-10-16T12:28:20.456Z,26.40
2018-10-16T12:30:49.622Z,26.47
2018-10-16T12:33:18.793Z,26.74
2018-10-16T12:35:48.005Z,26.69
2018-10-16T12:38:17.264Z,26.76
2018-10-16T12:40:46.460Z,26.78
2018-10-16T12:43:15.687Z,26.68
2018-10-16T12:45:44.824Z,26.58
2018-10-16T12:48:14.071Z,26.46
2018-10-16T12:50:43.202Z,26.37
2018-10-16T12:53:12.526Z,26.31
2018-10-16T12:55:41.693Z,26.26
2018-10-16T12:58:10.862Z,26.32
2018-10-16T13:00:40.109Z,26.29
2018-10-16T13:03:09.440Z,26.52
2018-10-16T13:05:38.610Z,26.33
2018-10-16T13:08:07.831Z,26.31
2018-10-16T13:10:36.907Z,26.30
2018-10-16T13:13:06.074Z,26.14
2018-10-16T13:15:35.230Z,26.13
2018-10-16T13:18:04.733Z,26.18
2018-10-16T13:20:33.890Z,26.17
2018-10-16T13:23:03.075Z,26.20
2018-10-16T13:25:32.213Z,26.36
2018-10-16T13:28:01.465Z,26.46
2018-10-16T13:30:31.001Z,26.57
2018-10-16T13:33:00.141Z,26.46
2018-10-16T13:35:29.294Z,26.56
2018-10-16T13:37:58.552Z,26.57
2018-10-16T13:40:27.651Z,26.65
2018-10-16T13:42:56.929Z,26.60
2018-10-16T13:45:25.981Z,26.56
2018-10-16T13:47:55.146Z,26.64
2018-10-16T13:50:24.353Z,26.56
2018-10-16T13:52:53.497Z,26.48
2018-10-16T13:55:22.663Z,26.34
2018-10-16T13:57:51.818Z,26.26
2018-10-16T14:00:21.550Z,26.41
2018-10-16T14:02:51.847Z,26.13
2018-10-16T14:05:21.000Z,25.99
2018-10-16T14:07:50.145Z,25.91
2018-10-16T14:10:19.438Z,25.97
2018-10-16T14:12:49.029Z,25.96
2018-10-16T14:15:18.516Z,25.92
2018-10-16T14:17:47.693Z,25.81
2018-10-16T14:20:16.916Z,25.77
2018-10-16T14:22:46.089Z,25.79
2018-10-16T14:25:15.954Z,25.79
2018-10-16T14:27:45.141Z,25.71
2018-10-16T14:30:15.589Z,25.57
2018-10-16T14:32:44.992Z,25.38
2018-10-16T14:35:14.598Z,25.07
2018-10-16T14:37:43.751Z,24.96
2018-10-16T14:40:14.778Z,24.66
2018-10-16T14:42:44.226Z,24.37
2018-10-16T14:45:14.114Z,24.10
2018-10-16T14:47:43.456Z,24.06
2018-10-16T14:50:13.746Z,23.78
2018-10-16T14:52:42.983Z,23.56
2018-10-16T14:55:12.153Z,23.34
2018-10-16T14:57:41.413Z,23.18
2018-10-16T15:00:12.196Z,23.07
2018-10-16T15:02:41.395Z,22.95
2018-10-16T15:05:11.564Z,22.83
2018-10-16T15:07:40.721Z,22.72
2018-10-16T15:10:10.501Z,22.60
2018-10-16T15:12:39.577Z,22.53
2018-10-16T15:15:09.630Z,22.33
2018-10-16T15:17:38.805Z,22.27
2018-10-16T15:20:10.083Z,22.19
2018-10-16T15:22:39.190Z,21.97
2018-10-16T15:25:09.609Z,21.93
2018-10-16T15:27:38.765Z,21.85
2018-10-16T15:30:09.593Z,21.75
2018-10-16T15:32:39.033Z,21.68
2018-10-16T15:35:09.766Z,21.52
2018-10-16T15:37:39.165Z,21.46
2018-10-16T15:40:10.342Z,21.31
2018-10-16T15:42:39.515Z,21.24
2018-10-16T15:45:10.731Z,21.18
2018-10-16T15:47:40.452Z,21.15
2018-10-16T15:50:10.293Z,21.08
2018-10-16T15:52:39.689Z,20.99
2018-10-16T15:55:10.148Z,20.91
2018-10-16T15:57:39.396Z,20.84
2018-10-16T16:00:14.937Z,20.77
2018-10-16T16:02:44.109Z,20.69
2018-10-16T16:05:13.422Z,20.61
2018-10-16T16:07:42.603Z,20.55
2018-10-16T16:10:14.227Z,20.48
2018-10-16T16:12:43.392Z,20.42
2018-10-16T16:15:13.435Z,20.35
2018-10-16T16:17:43.086Z,20.27
2018-10-16T16:20:13.558Z,20.18
2018-10-16T16:22:42.705Z,20.07
2018-10-16T16:25:13.297Z,20.01
2018-10-16T16:27:42.481Z,19.93
2018-10-16T16:30:14.499Z,19.79
2018-10-16T16:32:43.637Z,19.66
2018-10-16T16:35:12.861Z,19.55
2018-10-16T16:37:41.962Z,19.45
2018-10-16T16:40:12.930Z,19.36
2018-10-16T16:42:42.274Z,19.26
2018-10-16T16:45:11.989Z,19.18
2018-10-16T16:47:51.036Z,19.03
2018-10-16T16:50:20.213Z,18.96
2018-10-16T16:52:49.399Z,18.93
2018-10-16T16:55:18.571Z,18.91
2018-10-16T16:57:47.759Z,18.89
2018-10-16T17:00:16.925Z,18.86
2018-10-16T17:02:46.800Z,18.79
2018-10-16T17:05:16.020Z,18.75
2018-10-16T17:07:45.433Z,18.62
2018-10-16T17:10:14.735Z,18.54
2018-10-16T17:12:43.759Z,18.47
2018-10-16T17:15:14.239Z,18.33
2018-10-16T17:17:44.188Z,18.36
2018-10-16T17:20:13.375Z,18.33
2018-10-16T17:22:42.478Z,18.31
2018-10-16T17:25:13.475Z,18.30
2018-10-16T17:27:43.086Z,18.29
2018-10-16T17:30:15.045Z,18.30
2018-10-16T17:32:44.703Z,18.26
2018-10-16T17:35:14.398Z,18.21
2018-10-16T17:37:43.924Z,18.11
2018-10-16T17:40:14.446Z,18.11
2018-10-16T17:42:43.666Z,18.03
2018-10-16T17:45:14.335Z,17.99
2018-10-16T17:47:43.714Z,18.07
2018-10-16T17:50:15.274Z,18.20
2018-10-16T17:52:44.531Z,18.19
2018-10-16T17:55:14.550Z,18.12
2018-10-16T17:57:43.904Z,18.08
2018-10-16T18:00:16.613Z,18.09
2018-10-16T18:02:47.228Z,18.04
2018-10-16T18:05:17.169Z,17.89
2018-10-16T18:07:47.011Z,17.92
2018-10-16T18:10:16.351Z,17.94
2018-10-16T18:12:46.226Z,17.90
2018-10-16T18:15:16.094Z,17.82
2018-10-16T18:17:45.392Z,17.74
2018-10-16T18:20:16.030Z,17.66
2018-10-16T18:22:45.897Z,17.56
2018-10-16T18:25:15.208Z,17.44
2018-10-16T18:27:45.260Z,17.34
2018-10-16T18:30:14.793Z,17.36
2018-10-16T18:32:44.170Z,17.27
2018-10-16T18:35:13.432Z,17.23
2018-10-16T18:37:43.673Z,17.18
2018-10-16T18:40:13.544Z,17.12
2018-10-16T18:42:42.906Z,17.13
2018-10-16T18:45:13.424Z,17.12
2018-10-16T18:47:42.525Z,17.06
2018-10-16T18:50:12.900Z,16.96
2018-10-16T18:52:42.525Z,17.01
2018-10-16T18:55:13.183Z,17.03
2018-10-16T18:57:42.390Z,17.13
2018-10-16T19:00:14.137Z,17.10
2018-10-16T19:02:43.436Z,17.06
2018-10-16T19:05:12.648Z,17.12
2018-10-16T19:07:42.142Z,17.18
2018-10-16T19:10:11.501Z,17.19
2018-10-16T19:12:41.668Z,17.23
2018-10-16T19:15:12.714Z,17.22
2018-10-16T19:17:42.534Z,17.19
2018-10-16T19:20:13.002Z,17.14
2018-10-16T19:22:42.821Z,17.15
2018-10-16T19:25:13.269Z,17.14
2018-10-16T19:27:42.727Z,17.12
2018-10-16T19:30:12.748Z,17.03
2018-10-16T19:32:41.970Z,17.02
2018-10-16T19:35:12.505Z,17.01
2018-10-16T19:37:41.886Z,16.98
2018-10-16T19:40:11.248Z,16.97
2018-10-16T19:42:40.453Z,16.83
2018-10-16T19:45:10.598Z,16.84
2018-10-16T19:47:39.961Z,16.80
2018-10-16T19:50:09.956Z,16.73
2018-10-16T19:52:39.180Z,16.65
2018-10-16T19:55:08.444Z,16.60
2018-10-16T19:57:37.913Z,16.53
2018-10-16T20:00:08.684Z,16.51
2018-10-16T20:02:37.838Z,16.42
2018-10-16T20:05:07.954Z,16.37
2018-10-16T20:07:37.457Z,16.33
2018-10-16T20:10:08.310Z,16.31
2018-10-16T20:12:37.496Z,16.35
2018-10-16T20:15:09.198Z,16.33
2018-10-16T20:17:38.966Z,16.40
2018-10-16T20:20:09.457Z,16.40
2018-10-16T20:22:38.656Z,16.36
2018-10-16T20:25:08.862Z,16.39
2018-10-16T20:27:37.963Z,16.46
2018-10-16T20:30:08.926Z,16.40
2018-10-16T20:32:38.084Z,16.36
2018-10-16T20:35:07.254Z,16.43
2018-10-16T20:37:36.416Z,16.41
2018-10-16T20:40:05.793Z,16.23
2018-10-16T20:42:35.496Z,16.26
2018-10-16T20:45:04.722Z,16.18
2018-10-16T20:47:33.959Z,16.13
2018-10-16T20:50:03.036Z,16.11
2018-10-16T20:52:32.193Z,16.10
2018-10-16T20:55:01.373Z,16.06
2018-10-16T20:57:37.257Z,16.04
2018-10-16T21:00:07.268Z,15.95
2018-10-16T21:02:36.634Z,15.88
2018-10-16T21:05:07.303Z,15.85
2018-10-16T21:07:36.359Z,15.83
2018-10-16T21:10:06.393Z,15.64
2018-10-16T21:12:35.606Z,15.66
2018-10-16T21:15:04.873Z,15.70
2018-10-16T21:17:34.080Z,15.71
2018-10-16T21:20:03.342Z,15.71
2018-10-16T21:22:32.518Z,15.68
2018-10-16T21:25:01.737Z,15.66
2018-10-16T21:27:30.833Z,15.62
2018-10-16T21:30:00.099Z,15.67
2018-10-16T21:32:29.284Z,15.58
2018-10-16T21:34:58.464Z,15.58
2018-10-16T21:37:27.588Z,15.51
2018-10-16T21:39:56.765Z,15.47
2018-10-16T21:42:25.949Z,15.40
2018-10-16T21:44:56.022Z,15.37
2018-10-16T21:47:26.117Z,15.36
2018-10-16T21:49:55.853Z,15.38
2018-10-16T21:52:25.114Z,15.33
2018-10-16T21:54:55.087Z,15.20
2018-10-16T21:57:25.008Z,15.22
2018-10-16T21:59:54.197Z,15.18
2018-10-16T22:02:28.591Z,15.16
2018-10-16T22:04:58.078Z,15.14
2018-10-16T22:07:27.309Z,15.14
2018-10-16T22:09:56.437Z,15.12
2018-10-16T22:12:25.612Z,15.13
2018-10-16T22:14:54.762Z,15.15
2018-10-16T22:17:23.920Z,15.07
2018-10-16T22:19:53.057Z,14.99
2018-10-16T22:22:22.223Z,14.83
2018-10-16T22:24:51.427Z,14.80
2018-10-16T22:27:20.578Z,14.72
2018-10-16T22:29:49.729Z,14.78
2018-10-16T22:32:18.885Z,14.70
2018-10-16T22:34:48.042Z,14.72
2018-10-16T22:37:17.244Z,14.73
2018-10-16T22:39:46.381Z,14.73
2018-10-16T22:42:15.569Z,14.75
2018-10-16T22:44:44.774Z,14.70
2018-10-16T22:47:14.005Z,14.67
2018-10-16T22:49:43.142Z,14.66
2018-10-16T22:52:12.345Z,14.61
2018-10-16T22:54:41.530Z,14.66
2018-10-16T22:57:10.864Z,14.67
2018-10-16T22:59:40.165Z,14.59
2018-10-16T23:02:09.371Z,14.60
2018-10-16T23:04:38.521Z,14.57
2018-10-16T23:07:07.734Z,14.52
2018-10-16T23:09:36.858Z,14.41
2018-10-16T23:12:07.119Z,14.40
2018-10-16T23:14:36.311Z,14.39
2018-10-16T23:17:05.646Z,14.31
2018-10-16T23:19:34.999Z,14.33
2018-10-16T23:22:04.224Z,14.31
2018-10-16T23:24:33.385Z,14.27
2018-10-16T23:27:02.551Z,14.26
2018-10-16T23:29:31.697Z,14.24
2018-10-16T23:32:00.870Z,14.23
2018-10-16T23:34:30.014Z,14.17
2018-10-16T23:36:59.218Z,14.17
2018-10-16T23:39:28.392Z,14.12
2018-10-16T23:41:57.537Z,14.13
2018-10-16T23:44:26.685Z,14.13
2018-10-16T23:46:55.892Z,14.11
2018-10-16T23:49:25.057Z,14.08
2018-10-16T23:51:54.225Z,14.06
2018-10-16T23:54:23.476Z,14.06
2018-10-16T23:56:52.633Z,14.07
2018-10-16T23:59:21.822Z,14.05
